createdAt,value
2019-02-20T00:01:56.184Z,187.37
2019-02-20T00:04:23.661Z,181.07
2019-02-20T00:06:53.105Z,199.30
2019-02-20T00:09:20.501Z,187.03
2019-02-20T00:11:48.189Z,207.77
2019-02-20T00:14:15.746Z,192.13
2019-02-20T00:16:43.315Z,187.20
2019-02-20T00:19:10.804Z,170.20
2019-02-20T00:21:38.285Z,196.17
2019-02-20T00:24:05.906Z,183.93
2019-02-20T00:26:34.509Z,179.00
2019-02-20T00:29:02.201Z,174.27
2019-02-20T00:31:29.729Z,177.27
2019-02-20T00:33:57.110Z,175.50
2019-02-20T00:36:24.733Z,176.93
2019-02-20T00:38:52.326Z,171.97
2019-02-20T00:41:19.933Z,171.43
2019-02-20T00:44:02.056Z,163.13
2019-02-20T00:46:38.257Z,188.77
2019-02-20T00:49:25.566Z,176.30
2019-02-20T00:51:59.935Z,177.67
2019-02-20T00:54:27.338Z,159.37
2019-02-20T00:56:54.959Z,184.53
2019-02-20T00:59:22.483Z,184.13
2019-02-20T01:01:50.021Z,202.90
2019-02-20T01:04:17.524Z,178.43
2019-02-20T01:06:45.398Z,184.27
2019-02-20T01:09:12.896Z,181.93
2019-02-20T01:11:40.917Z,186.10
2019-02-20T01:14:08.631Z,174.07
2019-02-20T01:16:36.239Z,189.53
2019-02-20T01:19:03.820Z,174.80
2019-02-20T01:24:34.533Z,174.47
2019-02-20T01:27:02.263Z,199.80
2019-02-20T01:29:29.746Z,181.00
2019-02-20T01:31:57.316Z,193.97
2019-02-20T01:34:24.983Z,176.03
2019-02-20T01:36:52.673Z,197.03
2019-02-20T01:39:20.096Z,186.27
2019-02-20T01:41:47.990Z,207.10
2019-02-20T01:44:18.388Z,188.70
2019-02-20T01:46:46.079Z,188.07
2019-02-20T01:49:13.538Z,190.27
2019-02-20T01:51:42.231Z,189.57
2019-02-20T01:54:10.025Z,189.33
2019-02-20T01:56:37.707Z,193.40
2019-02-20T01:59:05.376Z,194.03
2019-02-20T02:01:32.999Z,207.27
2019-02-20T02:04:00.552Z,189.50
2019-02-20T02:06:29.934Z,201.17
2019-02-20T02:08:59.697Z,203.43
2019-02-20T02:11:27.274Z,210.80
2019-02-20T02:13:55.063Z,183.83
2019-02-20T02:16:22.850Z,199.97
2019-02-20T02:18:50.565Z,211.53
2019-02-20T02:21:18.357Z,206.00
2019-02-20T02:23:47.631Z,183.37
2019-02-20T02:26:16.724Z,195.67
2019-02-20T02:28:44.419Z,184.20
2019-02-20T02:31:11.809Z,188.20
2019-02-20T02:33:39.196Z,189.97
2019-02-20T02:36:06.854Z,187.43
2019-02-20T02:38:34.385Z,187.57
2019-02-20T02:41:01.858Z,177.43
2019-02-20T02:43:30.385Z,177.70
2019-02-20T02:45:58.549Z,183.57
2019-02-20T02:48:25.962Z,187.40
2019-02-20T02:50:53.450Z,189.23
2019-02-20T02:53:30.346Z,197.50
2019-02-20T02:55:51.144Z,201.63
2019-02-20T02:58:18.846Z,184.73
2019-02-20T03:00:46.342Z,190.87
2019-02-20T03:03:13.821Z,188.37
2019-02-20T03:05:41.933Z,195.23
2019-02-20T03:08:09.906Z,183.70
2019-02-20T03:10:37.301Z,189.77
2019-02-20T03:13:05.094Z,185.27
2019-02-20T03:15:32.550Z,191.10
2019-02-20T03:18:00.087Z,182.80
2019-02-20T03:20:28.728Z,183.50
2019-02-20T03:22:56.261Z,188.50
2019-02-20T03:25:23.806Z,181.90
2019-02-20T03:27:51.195Z,202.63
2019-02-20T03:30:18.925Z,176.87
2019-02-20T03:32:46.341Z,188.43
2019-02-20T03:35:14.769Z,180.93
2019-02-20T03:37:43.209Z,178.20
2019-02-20T03:40:10.792Z,185.37
2019-02-20T03:42:38.533Z,190.83
2019-02-20T03:45:07.454Z,196.87
2019-02-20T03:47:35.040Z,185.77
2019-02-20T03:50:02.752Z,190.50
2019-02-20T03:52:32.193Z,195.90
2019-02-20T03:54:59.864Z,195.70
2019-02-20T03:57:27.359Z,183.30
2019-02-20T03:59:55.022Z,189.63
2019-02-20T04:02:23.588Z,188.80
2019-02-20T04:04:51.241Z,200.90
2019-02-20T04:07:18.798Z,184.67
2019-02-20T04:09:46.206Z,179.40
2019-02-20T04:12:14.007Z,188.13
2019-02-20T04:14:42.633Z,181.53
2019-02-20T04:17:10.266Z,194.13
2019-02-20T04:19:37.967Z,168.40
2019-02-20T04:22:05.831Z,191.30
2019-02-20T04:24:33.358Z,171.03
2019-02-20T04:27:01.278Z,175.80
2019-02-20T04:29:28.787Z,165.30
2019-02-20T04:31:56.388Z,173.77
2019-02-20T04:34:23.753Z,166.60
2019-02-20T04:36:51.356Z,167.73
2019-02-20T04:39:18.913Z,171.23
2019-02-20T04:41:46.656Z,183.27
2019-02-20T04:44:14.695Z,157.30
2019-02-20T04:46:42.305Z,175.00
2019-02-20T04:49:09.916Z,157.97
2019-02-20T04:51:37.585Z,168.67
2019-02-20T04:54:13.028Z,162.33
2019-02-20T04:56:34.591Z,165.67
2019-02-20T04:59:02.361Z,169.83
2019-02-20T05:01:30.078Z,168.43
2019-02-20T05:03:57.631Z,154.93
2019-02-20T05:06:25.117Z,183.50
2019-02-20T05:08:52.569Z,162.27
2019-02-20T05:11:20.385Z,173.93
2019-02-20T05:13:47.861Z,171.53
2019-02-20T05:16:15.675Z,169.57
2019-02-20T05:18:43.338Z,174.40
2019-02-20T05:21:10.875Z,171.57
2019-02-20T05:23:38.348Z,162.97
2019-02-20T05:26:06.017Z,172.50
2019-02-20T05:28:34.660Z,169.17
2019-02-20T05:31:02.117Z,177.80
2019-02-20T05:33:29.816Z,165.47
2019-02-20T05:35:57.546Z,185.77
2019-02-20T05:38:25.246Z,176.53
2019-02-20T05:40:53.760Z,167.00
2019-02-20T05:43:21.409Z,165.43
2019-02-20T05:45:48.977Z,173.33
2019-02-20T05:48:16.600Z,177.30
2019-02-20T05:50:45.127Z,194.67
2019-02-20T05:53:12.918Z,175.37
2019-02-20T05:55:40.554Z,165.80
2019-02-20T05:58:08.473Z,175.73
2019-02-20T06:00:36.487Z,174.07
2019-02-20T06:03:05.014Z,169.87
2019-02-20T06:05:32.653Z,179.43
2019-02-20T06:08:01.203Z,181.17
2019-02-20T06:10:28.977Z,184.17
2019-02-20T06:13:16.026Z,179.33
2019-02-20T06:15:44.015Z,174.47
2019-02-20T06:18:12.426Z,174.83
2019-02-20T06:20:39.778Z,170.37
2019-02-20T06:23:07.374Z,168.47
2019-02-20T06:25:34.933Z,164.00
2019-02-20T06:28:02.572Z,183.90
2019-02-20T15:47:41.205Z,166.53
2019-02-20T15:50:10.062Z,162.23
2019-02-20T15:52:39.711Z,153.53
2019-02-20T15:55:07.767Z,145.13
2019-02-20T15:57:38.080Z,154.00
2019-02-20T16:00:07.374Z,152.93
2019-02-20T16:02:35.747Z,152.27
2019-02-20T16:05:08.078Z,147.80
2019-02-20T16:07:35.699Z,150.73
2019-02-20T16:10:05.479Z,149.27
2019-02-20T16:12:32.950Z,142.63
2019-02-20T16:15:00.536Z,143.97
2019-02-20T16:17:28.021Z,171.73
2019-02-20T16:19:55.849Z,155.77
2019-02-20T16:22:23.578Z,191.30
2019-02-20T16:24:51.613Z,164.23
2019-02-20T16:27:19.690Z,149.33
2019-02-20T16:29:47.246Z,145.13
2019-02-20T16:32:18.607Z,145.40
2019-02-20T16:34:46.362Z,148.57
2019-02-20T16:37:14.060Z,149.57
2019-02-20T16:39:42.003Z,139.53
2019-02-20T16:42:10.026Z,153.10
2019-02-20T16:44:37.723Z,142.73
2019-02-20T16:47:05.330Z,148.57
2019-02-20T16:49:32.989Z,147.53
2019-02-20T16:52:00.948Z,150.00
2019-02-20T16:54:28.681Z,142.70
2019-02-20T16:56:56.573Z,142.63
2019-02-20T16:59:24.716Z,152.50
2019-02-20T17:01:53.130Z,165.23
2019-02-20T17:04:20.818Z,160.10
2019-02-20T17:06:48.217Z,173.90
2019-02-20T17:09:16.242Z,179.93
2019-02-20T17:11:43.995Z,160.87
2019-02-20T17:14:11.814Z,153.73
2019-02-20T17:16:39.746Z,166.33
2019-02-20T17:19:07.508Z,155.77
2019-02-20T17:21:36.169Z,173.67
2019-02-20T17:24:04.658Z,158.20
2019-02-20T17:26:32.715Z,174.30
2019-02-20T17:29:00.479Z,163.93
2019-02-20T17:31:28.410Z,176.43
2019-02-20T17:33:56.805Z,171.63
2019-02-20T17:36:24.520Z,173.17
2019-02-20T17:38:52.356Z,176.53
2019-02-20T17:41:20.123Z,176.93
2019-02-20T17:43:47.826Z,167.70
2019-02-20T17:46:15.575Z,170.40
2019-02-20T17:48:43.488Z,162.53
2019-02-20T17:51:12.328Z,160.90
2019-02-20T17:53:39.990Z,164.77
2019-02-20T17:56:08.343Z,161.17
2019-02-20T17:58:36.643Z,170.80
2019-02-20T18:01:10.551Z,164.20
2019-02-20T18:03:38.585Z,166.33
2019-02-20T18:06:06.230Z,157.13
2019-02-20T18:08:35.242Z,155.83
2019-02-20T18:11:04.450Z,167.23
2019-02-20T18:13:32.141Z,163.60
2019-02-20T18:15:59.865Z,162.27
2019-02-20T18:18:28.183Z,163.87
2019-02-20T18:20:56.044Z,160.97
2019-02-20T18:23:23.577Z,177.00
2019-02-20T18:25:52.335Z,168.20
2019-02-20T18:28:50.385Z,172.27
2019-02-20T18:31:19.977Z,176.63
2019-02-20T18:33:47.741Z,158.37
2019-02-20T18:36:15.504Z,165.37
2019-02-20T18:38:43.127Z,160.37
2019-02-20T18:41:15.605Z,172.67
2019-02-20T18:43:44.054Z,150.33
2019-02-20T18:46:12.460Z,168.70
2019-02-20T18:48:40.458Z,165.60
2019-02-20T18:51:09.943Z,154.33
2019-02-20T18:53:38.814Z,167.80
2019-02-20T18:56:07.108Z,159.17
2019-02-20T18:58:35.239Z,167.77
2019-02-20T19:01:43.971Z,159.67
2019-02-20T19:04:12.078Z,168.43
2019-02-20T19:06:41.376Z,177.70
2019-02-20T19:09:15.975Z,162.37
2019-02-20T19:12:44.138Z,172.77
2019-02-20T19:16:11.943Z,153.50
2019-02-20T19:19:46.361Z,157.17
2019-02-20T19:22:35.265Z,164.20
2019-02-20T19:25:37.742Z,171.40
2019-02-20T19:29:17.315Z,165.10
2019-02-20T19:32:26.464Z,161.50
2019-02-20T19:35:23.309Z,159.67
2019-02-20T19:38:53.729Z,163.30
2019-02-20T19:41:47.657Z,166.73
2019-02-20T19:45:32.022Z,151.43
2019-02-20T19:52:45.878Z,174.67
2019-02-20T19:56:15.140Z,153.07
2019-02-20T19:59:44.740Z,165.50
2019-02-20T20:03:01.929Z,190.37
2019-02-20T20:06:34.846Z,155.83
2019-02-20T20:09:51.564Z,157.23
2019-02-20T20:13:23.389Z,161.40
2019-02-20T20:16:34.661Z,162.47
2019-02-20T20:19:41.427Z,154.43
2019-02-20T20:23:23.238Z,173.23
2019-02-20T20:26:48.426Z,159.03
2019-02-20T20:30:27.784Z,154.63
2019-02-20T20:34:20.162Z,165.10
2019-02-20T20:37:39.378Z,169.03
2019-02-20T20:41:55.347Z,142.70
2019-02-20T20:53:59.173Z,144.80
2019-02-20T20:58:03.535Z,154.87
2019-02-20T21:06:24.035Z,149.60
2019-02-20T21:17:47.542Z,149.03
2019-02-20T21:25:21.001Z,143.67
2019-02-20T21:32:49.411Z,152.50
2019-02-20T21:36:35.758Z,156.23
2019-02-20T21:40:30.483Z,151.23
2019-02-20T21:43:52.822Z,148.30
2019-02-20T21:47:39.037Z,164.83
2019-02-20T21:59:07.654Z,147.37
2019-02-20T22:02:40.841Z,166.40
2019-02-20T22:14:22.481Z,147.13
2019-02-20T22:18:34.263Z,159.43
2019-02-20T22:30:47.356Z,150.87
2019-02-20T22:34:43.943Z,151.23
2019-02-20T22:38:30.314Z,167.57
2019-02-20T22:42:03.927Z,162.60
2019-02-20T22:45:54.120Z,154.03
2019-02-20T22:49:22.914Z,154.10
2019-02-20T22:56:43.468Z,153.53
2019-02-20T23:05:18.360Z,154.83
2019-02-20T23:44:41.439Z,163.83
2019-02-20T23:47:35.725Z,160.33
2019-02-20T23:50:16.298Z,155.60
2019-02-20T23:52:57.418Z,151.90
2019-02-20T23:55:57.227Z,147.27
2019-02-20T23:58:48.073Z,154.40
